createdAt,value
2022-07-31T00:00:28.251Z,101.35
2022-07-31T00:02:56.579Z,105.35
2022-07-31T00:05:26.768Z,101.93
2022-07-31T00:07:54.871Z,96.05
2022-07-31T00:10:22.765Z,98.20
2022-07-31T00:12:50.799Z,97.40
2022-07-31T00:15:20.288Z,96.85
2022-07-31T00:17:48.291Z,95.90
2022-07-31T00:20:17.775Z,91.97
2022-07-31T00:22:47.122Z,95.45
2022-07-31T00:25:16.130Z,95.82
2022-07-31T00:27:43.865Z,90.70
2022-07-31T00:30:13.392Z,91.65
2022-07-31T00:32:42.147Z,92.63
2022-07-31T00:35:14.331Z,98.57
2022-07-31T00:37:43.310Z,75.13
2022-07-31T00:40:15.729Z,99.00
2022-07-31T00:42:44.088Z,80.80
2022-07-31T00:45:13.455Z,104.35
2022-07-31T00:47:41.694Z,110.70
2022-07-31T00:50:10.240Z,121.82
2022-07-31T00:52:38.828Z,102.70
2022-07-31T00:55:06.795Z,109.47
2022-07-31T00:57:34.420Z,106.82
2022-07-31T01:00:01.933Z,104.90
2022-07-31T01:02:30.486Z,107.85
2022-07-31T01:04:57.834Z,104.55
2022-07-31T01:07:26.109Z,103.13
2022-07-31T01:09:54.681Z,100.90
2022-07-31T01:12:30.422Z,101.57
2022-07-31T01:15:03.408Z,101.15
2022-07-31T01:17:32.195Z,99.05
2022-07-31T01:20:01.840Z,95.45
2022-07-31T01:23:06.809Z,98.45
2022-07-31T01:25:50.459Z,101.97
2022-07-31T01:29:02.434Z,97.55
2022-07-31T01:31:50.059Z,94.88
2022-07-31T01:34:48.272Z,95.43
2022-07-31T01:37:32.684Z,97.40
2022-07-31T01:40:12.142Z,93.10
2022-07-31T01:42:43.269Z,97.40
2022-07-31T01:45:14.601Z,102.40
2022-07-31T01:47:44.101Z,97.50
2022-07-31T01:50:42.543Z,99.65
2022-07-31T01:53:01.167Z,100.80
2022-07-31T01:55:31.336Z,101.40
2022-07-31T01:58:22.649Z,102.53
2022-07-31T02:00:52.878Z,98.43
2022-07-31T02:03:44.331Z,97.75
2022-07-31T02:06:19.308Z,98.65
2022-07-31T02:08:50.338Z,97.72
2022-07-31T02:11:20.352Z,99.47
2022-07-31T02:13:49.781Z,94.30
2022-07-31T02:16:18.714Z,103.35
2022-07-31T02:18:50.814Z,99.95
2022-07-31T02:21:26.331Z,93.70
2022-07-31T02:23:54.441Z,93.05
2022-07-31T02:26:23.139Z,94.93
2022-07-31T02:28:52.774Z,92.25
2022-07-31T02:31:23.225Z,90.90
2022-07-31T02:33:52.806Z,92.85
2022-07-31T02:36:22.806Z,88.95
2022-07-31T02:38:53.099Z,91.95
2022-07-31T02:41:22.100Z,89.45
2022-07-31T02:43:50.113Z,98.60
2022-07-31T02:46:23.285Z,94.28
2022-07-31T02:48:52.455Z,96.47
2022-07-31T02:51:23.731Z,91.65
2022-07-31T02:53:52.512Z,96.82
2022-07-31T02:56:23.583Z,96.75
2022-07-31T02:58:52.991Z,95.07
2022-07-31T03:01:25.672Z,77.22
2022-07-31T03:03:53.933Z,97.80
2022-07-31T03:06:21.289Z,96.03
2022-07-31T03:08:48.840Z,98.00
2022-07-31T03:11:20.513Z,99.97
2022-07-31T03:13:48.619Z,92.28
2022-07-31T03:16:17.203Z,94.68
2022-07-31T03:18:47.084Z,98.07
2022-07-31T03:21:14.866Z,94.65
2022-07-31T03:23:43.146Z,96.30
2022-07-31T03:26:18.447Z,96.65
2022-07-31T03:28:46.160Z,97.13
2022-07-31T03:31:13.657Z,97.80
2022-07-31T03:33:42.806Z,96.40
2022-07-31T03:36:10.507Z,101.10
2022-07-31T03:38:39.067Z,91.78
2022-07-31T03:41:16.490Z,95.50
2022-07-31T03:43:47.887Z,95.75
2022-07-31T03:46:24.482Z,92.15
2022-07-31T03:48:53.122Z,90.75
2022-07-31T03:51:22.081Z,95.05
2022-07-31T03:53:50.211Z,96.53
2022-07-31T03:56:52.136Z,99.15
2022-07-31T03:59:21.575Z,94.78
2022-07-31T04:01:57.641Z,93.60
2022-07-31T04:04:59.515Z,93.88
2022-07-31T04:07:27.264Z,107.75
2022-07-31T04:09:54.710Z,102.38
2022-07-31T04:12:22.907Z,100.78
2022-07-31T04:14:50.539Z,104.97
2022-07-31T04:17:19.422Z,102.50
2022-07-31T04:19:46.942Z,103.75
2022-07-31T04:22:15.324Z,101.82
2022-07-31T04:24:44.413Z,109.30
2022-07-31T04:27:30.668Z,118.85
2022-07-31T04:29:58.725Z,128.48
2022-07-31T04:32:26.159Z,141.07
2022-07-31T04:34:58.397Z,156.27
2022-07-31T04:37:25.864Z,158.43
2022-07-31T04:39:53.498Z,160.32
2022-07-31T04:42:21.475Z,147.40
2022-07-31T04:44:49.392Z,159.13
2022-07-31T04:47:16.850Z,154.60
2022-07-31T04:49:49.527Z,156.40
2022-07-31T04:52:18.051Z,158.90
2022-07-31T04:54:47.524Z,151.60
2022-07-31T04:57:21.248Z,159.63
2022-07-31T05:05:01.856Z,150.73
2022-07-31T05:07:35.915Z,151.98
2022-07-31T05:10:09.288Z,158.93
2022-07-31T05:12:36.942Z,145.60
2022-07-31T05:15:06.312Z,137.18
2022-07-31T05:17:33.787Z,141.80
2022-07-31T05:20:21.157Z,139.50
2022-07-31T05:23:06.683Z,128.23
2022-07-31T05:25:52.942Z,128.50
2022-07-31T05:28:29.674Z,149.70
2022-07-31T05:30:58.574Z,170.13
2022-07-31T05:33:26.838Z,165.82
2022-07-31T05:35:58.388Z,159.20
2022-07-31T05:38:25.807Z,160.85
2022-07-31T05:41:19.414Z,169.60
2022-07-31T05:44:19.138Z,168.35
2022-07-31T05:49:17.853Z,186.75
2022-07-31T05:51:54.253Z,192.60
2022-07-31T05:54:22.723Z,186.75
2022-07-31T05:57:10.263Z,180.68
2022-07-31T05:59:42.196Z,163.32
2022-07-31T06:02:09.531Z,154.88
2022-07-31T06:04:56.870Z,155.60
2022-07-31T06:07:24.513Z,149.23
2022-07-31T06:09:51.959Z,160.75
2022-07-31T06:12:19.839Z,155.38
2022-07-31T06:14:47.154Z,153.38
2022-07-31T06:17:44.940Z,171.23
2022-07-31T06:20:29.053Z,162.63
2022-07-31T06:22:56.928Z,163.05
2022-07-31T06:25:31.939Z,165.85
2022-07-31T06:28:10.556Z,191.77
2022-07-31T06:30:40.852Z,196.55
2022-07-31T06:33:08.741Z,184.55
2022-07-31T06:35:44.398Z,171.93
2022-07-31T06:38:32.760Z,175.30
2022-07-31T06:41:47.659Z,185.48
2022-07-31T06:44:32.069Z,185.65
2022-07-31T06:47:19.950Z,203.23
2022-07-31T06:49:59.079Z,205.13
2022-07-31T06:52:28.493Z,221.65
2022-07-31T06:54:56.410Z,271.60
2022-07-31T06:57:24.015Z,267.40
2022-07-31T06:59:51.613Z,275.67
2022-07-31T07:02:19.067Z,284.20
2022-07-31T07:05:04.646Z,287.98
2022-07-31T07:07:38.001Z,323.23
2022-07-31T07:10:08.238Z,304.20
2022-07-31T07:15:33.591Z,304.30
2022-07-31T07:18:03.291Z,311.83
2022-07-31T07:20:37.292Z,319.40
2022-07-31T07:23:04.818Z,377.70
2022-07-31T07:25:55.359Z,520.33
2022-07-31T07:28:30.209Z,419.55
2022-07-31T07:31:04.062Z,377.45
2022-07-31T07:33:41.657Z,349.83
2022-07-31T07:36:24.057Z,300.38
2022-07-31T07:38:56.725Z,263.85
2022-07-31T07:41:25.396Z,215.35
2022-07-31T07:43:53.561Z,201.82
2022-07-31T07:46:25.954Z,197.45
2022-07-31T07:48:59.132Z,161.98
2022-07-31T07:51:35.546Z,178.10
2022-07-31T07:54:21.512Z,148.93
2022-07-31T07:57:07.419Z,138.13
2022-07-31T07:59:54.021Z,131.90
2022-07-31T08:03:46.698Z,128.55
2022-07-31T08:05:36.196Z,120.68
2022-07-31T08:08:03.967Z,114.63
2022-07-31T08:10:43.424Z,108.60
2022-07-31T08:13:16.427Z,115.80
2022-07-31T08:16:02.451Z,109.82
2022-07-31T08:18:54.564Z,121.38
2022-07-31T08:21:22.645Z,116.18
2022-07-31T08:23:50.009Z,118.72
2022-07-31T08:26:18.794Z,115.50
2022-07-31T08:28:50.760Z,124.38
2022-07-31T08:31:22.840Z,117.40
2022-07-31T08:34:10.575Z,124.78
2022-07-31T08:36:38.767Z,126.20
2022-07-31T08:39:06.604Z,113.68
2022-07-31T08:41:52.568Z,120.07
2022-07-31T08:44:26.483Z,105.22
2022-07-31T08:46:58.057Z,114.88
2022-07-31T08:49:26.642Z,111.85
2022-07-31T08:51:56.474Z,106.18
2022-07-31T08:54:51.981Z,115.43
2022-07-31T08:57:20.716Z,121.97
2022-07-31T08:59:52.596Z,121.35
2022-07-31T09:02:20.255Z,116.43
2022-07-31T09:05:17.131Z,122.13
2022-07-31T09:07:45.018Z,141.30
2022-07-31T09:10:26.766Z,133.85
2022-07-31T09:12:57.566Z,137.32
2022-07-31T09:15:29.444Z,144.18
2022-07-31T09:17:58.885Z,136.65
2022-07-31T09:20:29.607Z,176.13
2022-07-31T09:23:07.664Z,163.73
2022-07-31T09:25:39.131Z,155.48
2022-07-31T09:28:07.732Z,145.50
2022-07-31T09:30:35.876Z,152.95
2022-07-31T09:33:46.106Z,156.55
2022-07-31T09:36:32.996Z,159.15
2022-07-31T09:39:15.039Z,151.23
2022-07-31T09:42:16.979Z,181.32
2022-07-31T09:45:05.811Z,196.77
2022-07-31T09:47:34.421Z,223.18
2022-07-31T09:50:06.105Z,195.90
2022-07-31T09:52:34.012Z,208.88
2022-07-31T09:55:16.584Z,211.52
2022-07-31T09:57:55.641Z,221.50
2022-07-31T10:00:24.868Z,258.50
2022-07-31T10:02:55.554Z,259.55
2022-07-31T10:05:27.138Z,281.98
2022-07-31T10:08:00.673Z,294.90
2022-07-31T10:10:49.898Z,248.52
2022-07-31T10:13:26.264Z,229.00
2022-07-31T10:15:59.761Z,216.65
2022-07-31T10:18:55.574Z,198.80
2022-07-31T10:21:58.114Z,200.63
2022-07-31T10:24:33.813Z,201.00
2022-07-31T10:27:07.978Z,244.65
2022-07-31T10:29:41.809Z,234.68
2022-07-31T10:32:10.348Z,281.02
2022-07-31T10:35:07.797Z,271.52
2022-07-31T10:38:30.531Z,293.20
2022-07-31T10:41:36.711Z,287.80
2022-07-31T10:44:29.851Z,309.17
2022-07-31T10:47:16.731Z,300.45
2022-07-31T10:50:05.915Z,275.50
2022-07-31T10:52:45.468Z,223.27
2022-07-31T10:55:18.494Z,263.60
2022-07-31T10:58:13.097Z,281.05
2022-07-31T11:01:05.846Z,286.80
2022-07-31T11:03:41.967Z,283.15
2022-07-31T11:06:42.184Z,276.08
2022-07-31T11:09:29.440Z,266.38
2022-07-31T11:12:18.913Z,313.38
2022-07-31T11:15:23.974Z,329.33
2022-07-31T11:18:21.268Z,272.90
2022-07-31T11:21:38.236Z,274.25
2022-07-31T11:24:02.980Z,250.82
2022-07-31T11:26:33.421Z,280.02
2022-07-31T11:30:00.739Z,213.15
2022-07-31T11:32:17.033Z,221.02
2022-07-31T11:34:55.232Z,231.65
2022-07-31T11:37:57.176Z,205.18
2022-07-31T11:40:22.416Z,236.85
2022-07-31T11:43:23.477Z,224.30
2022-07-31T11:45:52.925Z,180.00
2022-07-31T11:48:21.922Z,246.68
2022-07-31T11:50:50.866Z,212.88
2022-07-31T11:53:20.036Z,381.92
2022-07-31T11:56:00.948Z,176.70
2022-07-31T11:58:29.933Z,170.90
2022-07-31T12:01:02.350Z,246.82
2022-07-31T12:03:39.444Z,204.55
2022-07-31T12:06:08.980Z,174.63
2022-07-31T12:08:38.444Z,194.85
2022-07-31T12:11:09.635Z,215.68
2022-07-31T12:13:39.660Z,186.20
2022-07-31T12:16:12.252Z,166.68
2022-07-31T12:18:58.875Z,183.88
2022-07-31T12:21:38.059Z,191.90
2022-07-31T12:24:15.574Z,203.45
2022-07-31T12:26:59.502Z,184.68
2022-07-31T12:29:35.233Z,999.90
2022-07-31T12:32:03.869Z,984.08
2022-07-31T12:34:39.842Z,999.90
2022-07-31T12:37:11.897Z,999.90
2022-07-31T12:40:00.194Z,999.90
2022-07-31T12:42:32.417Z,999.90
2022-07-31T12:45:19.642Z,999.90
2022-07-31T12:47:51.100Z,999.90
2022-07-31T12:50:21.057Z,999.90
2022-07-31T12:52:48.960Z,999.90
2022-07-31T12:55:18.049Z,999.90
2022-07-31T12:57:50.872Z,999.90
2022-07-31T13:00:22.865Z,999.90
2022-07-31T13:02:54.694Z,999.90
2022-07-31T13:05:26.709Z,999.90
2022-07-31T13:07:54.622Z,999.90
2022-07-31T13:10:24.945Z,999.90
2022-07-31T13:12:58.608Z,999.90
2022-07-31T13:15:32.097Z,999.90
2022-07-31T13:18:05.294Z,999.90
2022-07-31T13:23:02.997Z,999.90
2022-07-31T13:25:33.533Z,999.90
2022-07-31T13:28:01.272Z,999.90
2022-07-31T13:30:29.132Z,999.90
2022-07-31T13:32:56.613Z,999.90
2022-07-31T13:35:28.395Z,999.90
2022-07-31T13:37:56.969Z,999.90
2022-07-31T13:40:43.840Z,999.90
2022-07-31T13:43:11.405Z,999.90
2022-07-31T13:45:38.934Z,999.90
2022-07-31T13:48:09.563Z,999.90
2022-07-31T13:50:39.923Z,999.90
2022-07-31T13:53:08.346Z,999.90
2022-07-31T13:55:36.449Z,999.90
2022-07-31T13:58:05.347Z,999.90
2022-07-31T14:00:32.874Z,999.90
2022-07-31T14:03:00.463Z,999.90
2022-07-31T14:05:28.299Z,999.90
2022-07-31T14:07:56.342Z,999.90
2022-07-31T14:10:49.981Z,999.90
2022-07-31T14:13:19.467Z,999.90
2022-07-31T14:15:48.055Z,999.90
2022-07-31T14:18:15.820Z,999.90
2022-07-31T14:20:43.490Z,999.90
2022-07-31T14:23:11.191Z,999.90
2022-07-31T14:25:39.421Z,999.90
2022-07-31T14:28:07.990Z,999.70
2022-07-31T14:30:37.383Z,999.22
2022-07-31T14:33:05.346Z,998.15
2022-07-31T14:35:37.420Z,998.90
2022-07-31T14:38:05.158Z,999.33
2022-07-31T14:40:32.951Z,993.70
2022-07-31T14:43:00.438Z,994.17
2022-07-31T14:45:28.061Z,992.03
2022-07-31T14:47:56.961Z,991.85
2022-07-31T14:50:24.627Z,987.15
2022-07-31T14:52:52.217Z,986.97
2022-07-31T14:55:23.642Z,993.80
2022-07-31T14:57:52.287Z,990.20
2022-07-31T15:00:20.004Z,987.75
2022-07-31T15:02:49.538Z,992.97
2022-07-31T15:06:51.680Z,994.20
2022-07-31T15:08:05.372Z,990.42
2022-07-31T15:10:32.964Z,985.35
2022-07-31T15:13:00.453Z,983.42
2022-07-31T15:15:28.633Z,979.10
2022-07-31T15:17:56.546Z,983.15
2022-07-31T15:20:28.886Z,980.72
2022-07-31T15:23:00.793Z,983.05
2022-07-31T15:25:28.619Z,978.45
2022-07-31T15:27:56.255Z,979.70
2022-07-31T15:30:24.054Z,976.35
2022-07-31T15:32:53.378Z,981.35
2022-07-31T15:35:20.776Z,972.45
2022-07-31T15:37:49.708Z,970.03
2022-07-31T15:40:17.467Z,975.45
2022-07-31T15:42:46.232Z,974.40
2022-07-31T15:45:15.641Z,972.67
2022-07-31T15:47:46.507Z,982.70
2022-07-31T15:50:16.776Z,985.58
2022-07-31T15:52:45.888Z,982.67
2022-07-31T15:55:13.692Z,979.30
2022-07-31T15:57:41.922Z,978.65
2022-07-31T16:00:14.269Z,971.53
2022-07-31T16:02:43.090Z,969.40
2022-07-31T16:05:21.704Z,974.40
2022-07-31T16:08:30.838Z,973.85
2022-07-31T16:10:52.505Z,968.88
2022-07-31T16:13:22.418Z,969.28
2022-07-31T16:15:49.771Z,969.17
2022-07-31T16:18:18.209Z,967.45
2022-07-31T16:20:46.899Z,973.67
2022-07-31T16:23:16.839Z,961.45
2022-07-31T16:25:44.254Z,971.40
2022-07-31T16:28:11.767Z,968.58
2022-07-31T16:30:39.218Z,967.85
2022-07-31T16:33:06.706Z,968.00
2022-07-31T16:35:34.138Z,968.17
2022-07-31T16:38:01.686Z,968.45
2022-07-31T16:40:31.827Z,963.00
2022-07-31T16:43:47.206Z,957.20
2022-07-31T16:45:54.858Z,960.22
2022-07-31T16:48:22.339Z,962.50
2022-07-31T16:50:53.859Z,959.63
2022-07-31T16:54:10.092Z,963.25
2022-07-31T16:56:15.269Z,963.88
2022-07-31T16:58:44.143Z,957.90
2022-07-31T17:01:57.775Z,958.03
2022-07-31T17:04:03.491Z,960.80
2022-07-31T17:06:36.038Z,967.63
2022-07-31T17:09:16.640Z,968.28
2022-07-31T17:11:51.522Z,963.05
2022-07-31T17:14:21.009Z,965.00
2022-07-31T17:16:49.690Z,967.08
2022-07-31T17:19:42.726Z,970.97
2022-07-31T17:22:11.757Z,951.35
2022-07-31T17:24:51.060Z,960.00
2022-07-31T17:27:20.039Z,950.38
2022-07-31T17:29:47.572Z,959.53
2022-07-31T17:32:14.962Z,955.33
2022-07-31T17:34:45.178Z,953.05
2022-07-31T17:37:13.032Z,951.75
2022-07-31T17:39:40.432Z,958.92
2022-07-31T17:42:09.491Z,954.13
2022-07-31T17:44:39.825Z,956.08
2022-07-31T17:47:10.315Z,950.42
2022-07-31T17:49:38.488Z,953.17
2022-07-31T17:52:06.524Z,936.97
2022-07-31T17:54:34.377Z,936.70
2022-07-31T17:57:02.594Z,931.53
2022-07-31T17:59:30.599Z,937.75
2022-07-31T18:02:08.446Z,939.75
2022-07-31T18:04:37.784Z,930.72
2022-07-31T18:07:07.701Z,935.95
2022-07-31T18:09:36.800Z,937.92
2022-07-31T18:12:05.169Z,934.33
2022-07-31T18:14:32.773Z,922.40
2022-07-31T18:17:00.180Z,927.67
2022-07-31T18:19:30.682Z,928.60
2022-07-31T18:21:59.220Z,933.70
2022-07-31T18:24:26.766Z,929.08
2022-07-31T18:26:54.345Z,923.85
2022-07-31T18:29:21.932Z,923.80
2022-07-31T18:31:49.452Z,924.00
2022-07-31T18:34:16.807Z,920.05
2022-07-31T18:36:44.286Z,921.75
2022-07-31T18:39:11.855Z,916.58
2022-07-31T18:41:39.234Z,924.95
2022-07-31T18:44:06.765Z,920.58
2022-07-31T18:46:34.218Z,918.95
2022-07-31T18:49:01.808Z,926.05
2022-07-31T18:51:31.361Z,920.75
2022-07-31T18:53:59.353Z,920.28
2022-07-31T18:56:27.063Z,913.20
2022-07-31T18:58:55.065Z,908.25
2022-07-31T19:01:23.895Z,910.28
2022-07-31T19:03:53.256Z,907.45
2022-07-31T19:06:23.441Z,901.75
2022-07-31T19:08:52.274Z,895.47
2022-07-31T19:11:27.833Z,899.13
2022-07-31T19:13:55.551Z,894.63
2022-07-31T19:16:28.651Z,894.03
2022-07-31T19:18:56.605Z,892.97
2022-07-31T19:21:42.374Z,891.28
2022-07-31T19:24:10.476Z,882.65
2022-07-31T19:26:37.917Z,890.85
2022-07-31T19:29:05.586Z,886.60
2022-07-31T19:31:33.150Z,896.88
2022-07-31T19:34:00.999Z,890.28
2022-07-31T19:36:29.277Z,896.08
2022-07-31T19:38:56.812Z,889.60
2022-07-31T19:41:24.286Z,894.30
2022-07-31T19:43:51.652Z,895.35
2022-07-31T19:46:18.962Z,889.92
2022-07-31T19:48:47.231Z,878.30
2022-07-31T19:51:16.445Z,884.33
2022-07-31T19:53:45.343Z,879.50
2022-07-31T19:56:18.291Z,874.60
2022-07-31T19:58:47.861Z,866.53
2022-07-31T20:01:15.173Z,866.92
2022-07-31T20:03:42.867Z,865.53
2022-07-31T20:06:10.225Z,849.10
2022-07-31T20:08:37.630Z,840.25
2022-07-31T20:11:05.506Z,854.33
2022-07-31T20:13:34.730Z,857.03
2022-07-31T20:16:02.277Z,856.40
2022-07-31T20:18:30.895Z,855.35
2022-07-31T20:21:16.381Z,845.97
2022-07-31T20:23:44.511Z,843.13
2022-07-31T20:26:17.771Z,867.00
2022-07-31T20:28:45.408Z,843.10
2022-07-31T20:31:16.317Z,840.60
2022-07-31T20:33:57.434Z,843.25
2022-07-31T20:36:27.354Z,840.17
2022-07-31T20:38:55.509Z,843.22
2022-07-31T20:41:25.587Z,844.17
2022-07-31T20:43:52.932Z,838.15
2022-07-31T20:46:20.390Z,835.00
2022-07-31T20:48:50.078Z,835.80
2022-07-31T20:51:23.883Z,828.70
2022-07-31T20:53:53.290Z,830.30
2022-07-31T20:56:21.192Z,821.15
2022-07-31T20:58:51.702Z,824.60
2022-07-31T21:01:21.828Z,819.55
2022-07-31T21:03:49.983Z,820.90
2022-07-31T21:06:17.705Z,813.88
2022-07-31T21:08:45.814Z,815.30
2022-07-31T21:11:13.400Z,804.42
2022-07-31T21:13:42.193Z,814.35
2022-07-31T21:16:09.596Z,813.88
2022-07-31T21:18:41.221Z,808.45
2022-07-31T21:23:37.712Z,776.22
2022-07-31T21:26:07.833Z,786.63
2022-07-31T21:28:35.723Z,786.30
2022-07-31T21:31:03.462Z,771.10
2022-07-31T21:33:31.128Z,779.65
2022-07-31T21:35:59.095Z,782.80
2022-07-31T21:38:28.262Z,773.88
2022-07-31T21:40:55.885Z,783.47
2022-07-31T21:43:23.721Z,770.20
2022-07-31T21:45:57.210Z,757.28
2022-07-31T21:48:30.577Z,742.38
2022-07-31T21:50:58.912Z,757.15
2022-07-31T21:53:26.571Z,754.45
2022-07-31T21:55:54.396Z,739.85
2022-07-31T21:58:22.112Z,753.80
2022-07-31T22:00:49.581Z,733.85
2022-07-31T22:03:17.201Z,753.60
2022-07-31T22:06:03.099Z,753.40
2022-07-31T22:08:30.686Z,747.58
2022-07-31T22:10:58.177Z,752.03
2022-07-31T22:13:25.659Z,734.75
2022-07-31T22:16:00.103Z,736.15
2022-07-31T22:18:33.557Z,735.72
2022-07-31T22:21:06.486Z,736.15
2022-07-31T22:23:34.825Z,732.28
2022-07-31T22:26:02.567Z,736.65
2022-07-31T22:28:30.160Z,722.63
2022-07-31T22:30:58.687Z,723.63
2022-07-31T22:33:26.373Z,706.75
2022-07-31T22:35:59.495Z,709.20
2022-07-31T22:38:30.074Z,701.08
2022-07-31T22:40:59.762Z,704.88
2022-07-31T22:44:13.647Z,702.72
2022-07-31T22:46:16.219Z,707.85
2022-07-31T22:48:47.524Z,706.22
2022-07-31T22:51:15.730Z,702.78
2022-07-31T22:53:44.629Z,706.95
2022-07-31T22:56:17.166Z,714.17
2022-07-31T22:58:44.913Z,706.78
2022-07-31T23:01:12.404Z,703.38
2022-07-31T23:03:39.672Z,704.15
2022-07-31T23:06:31.716Z,702.47
2022-07-31T23:08:56.223Z,705.28
2022-07-31T23:11:24.969Z,712.17
2022-07-31T23:13:53.427Z,710.65
2022-07-31T23:16:21.112Z,698.80
2022-07-31T23:18:49.452Z,709.53
2022-07-31T23:21:27.514Z,698.33
2022-07-31T23:23:55.375Z,713.17
2022-07-31T23:26:24.677Z,712.90
2022-07-31T23:28:54.129Z,705.42
2022-07-31T23:31:21.866Z,697.78
2022-07-31T23:33:49.934Z,704.28
2022-07-31T23:36:18.086Z,696.30
2022-07-31T23:38:47.982Z,699.03
2022-07-31T23:41:15.962Z,694.55
2022-07-31T23:43:55.230Z,683.80
2022-07-31T23:46:26.971Z,672.05
2022-07-31T23:48:57.167Z,672.47
2022-07-31T23:51:26.983Z,671.90
2022-07-31T23:53:54.732Z,645.33
2022-07-31T23:56:22.529Z,650.05
2022-07-31T23:58:50.198Z,638.00
